sensor_id;sensor_type;location;lat;lon;timestamp;P1;durP1;ratioP1;P2;durP2;ratioP2
45728;SDS011;31439;53.512;10.206;2023-04-03T00:01:28;6.43;;;2.20;;
45728;SDS011;31439;53.512;10.206;2023-04-03T00:03:54;10.88;;;2.20;;
45728;SDS011;31439;53.512;10.206;2023-04-03T00:06:21;8.18;;;2.35;;
45728;SDS011;31439;53.512;10.206;2023-04-03T00:08:48;5.63;;;2.00;;
45728;SDS011;31439;53.512;10.206;2023-04-03T00:11:13;5.82;;;2.03;;
45728;SDS011;31439;53.512;10.206;2023-04-03T00:13:41;6.22;;;2.20;;
45728;SDS011;31439;53.512;10.206;2023-04-03T00:16:08;6.68;;;2.00;;
45728;SDS011;31439;53.512;10.206;2023-04-03T00:18:41;7.38;;;2.00;;
45728;SDS011;31439;53.512;10.206;2023-04-03T00:21:07;8.68;;;2.53;;
45728;SDS011;31439;53.512;10.206;2023-04-03T00:23:37;7.75;;;2.28;;
45728;SDS011;31439;53.512;10.206;2023-04-03T00:26:06;9.25;;;2.42;;
45728;SDS011;31439;53.512;10.206;2023-04-03T00:28:32;8.10;;;2.85;;
45728;SDS011;31439;53.512;10.206;2023-04-03T00:31:02;9.68;;;2.53;;
45728;SDS011;31439;53.512;10.206;2023-04-03T00:33:28;5.55;;;2.47;;
45728;SDS011;31439;53.512;10.206;2023-04-03T00:35:57;10.68;;;2.65;;
45728;SDS011;31439;53.512;10.206;2023-04-03T00:38:23;10.35;;;2.38;;
45728;SDS011;31439;53.512;10.206;2023-04-03T00:40:50;8.10;;;2.40;;
45728;SDS011;31439;53.512;10.206;2023-04-03T00:43:21;6.10;;;2.40;;
45728;SDS011;31439;53.512;10.206;2023-04-03T00:46:03;7.40;;;2.40;;
45728;SDS011;31439;53.512;10.206;2023-04-03T00:48:41;7.07;;;1.92;;
45728;SDS011;31439;53.512;10.206;2023-04-03T00:51:14;11.88;;;2.17;;
45728;SDS011;31439;53.512;10.206;2023-04-03T00:54:06;7.93;;;2.15;;
45728;SDS011;31439;53.512;10.206;2023-04-03T00:56:37;6.70;;;2.17;;
45728;SDS011;31439;53.512;10.206;2023-04-03T00:59:12;7.15;;;2.28;;
45728;SDS011;31439;53.512;10.206;2023-04-03T01:01:44;5.97;;;1.80;;
45728;SDS011;31439;53.512;10.206;2023-04-03T01:04:29;5.53;;;2.30;;
45728;SDS011;31439;53.512;10.206;2023-04-03T01:07:02;7.88;;;2.08;;
45728;SDS011;31439;53.512;10.206;2023-04-03T01:09:31;6.75;;;2.30;;
45728;SDS011;31439;53.512;10.206;2023-04-03T01:14:48;7.78;;;2.13;;
45728;SDS011;31439;53.512;10.206;2023-04-03T01:23:06;5.80;;;2.05;;
45728;SDS011;31439;53.512;10.206;2023-04-03T01:25:49;10.95;;;2.80;;
45728;SDS011;31439;53.512;10.206;2023-04-03T01:28:24;7.40;;;2.20;;
45728;SDS011;31439;53.512;10.206;2023-04-03T01:30:58;5.85;;;2.22;;
45728;SDS011;31439;53.512;10.206;2023-04-03T01:33:32;4.53;;;1.90;;
45728;SDS011;31439;53.512;10.206;2023-04-03T01:36:02;7.93;;;2.15;;
45728;SDS011;31439;53.512;10.206;2023-04-03T01:38:29;7.78;;;2.33;;
45728;SDS011;31439;53.512;10.206;2023-04-03T01:40:59;6.35;;;2.13;;
45728;SDS011;31439;53.512;10.206;2023-04-03T01:43:26;9.85;;;2.70;;
45728;SDS011;31439;53.512;10.206;2023-04-03T01:45:52;6.22;;;2.30;;
45728;SDS011;31439;53.512;10.206;2023-04-03T01:48:19;5.93;;;2.28;;
45728;SDS011;31439;53.512;10.206;2023-04-03T01:50:49;4.72;;;2.10;;
45728;SDS011;31439;53.512;10.206;2023-04-03T01:53:23;10.43;;;2.23;;
45728;SDS011;31439;53.512;10.206;2023-04-03T01:56:00;7.07;;;2.05;;
45728;SDS011;31439;53.512;10.206;2023-04-03T01:58:26;7.57;;;2.13;;
45728;SDS011;31439;53.512;10.206;2023-04-03T02:00:52;7.90;;;2.33;;
45728;SDS011;31439;53.512;10.206;2023-04-03T02:03:18;7.97;;;2.20;;
45728;SDS011;31439;53.512;10.206;2023-04-03T02:05:44;9.80;;;3.10;;
45728;SDS011;31439;53.512;10.206;2023-04-03T02:08:11;5.90;;;1.98;;
45728;SDS011;31439;53.512;10.206;2023-04-03T02:10:42;6.57;;;1.90;;
45728;SDS011;31439;53.512;10.206;2023-04-03T02:15:49;5.88;;;1.70;;
45728;SDS011;31439;53.512;10.206;2023-04-03T02:18:15;6.65;;;1.90;;
45728;SDS011;31439;53.512;10.206;2023-04-03T02:20:47;8.18;;;2.03;;
45728;SDS011;31439;53.512;10.206;2023-04-03T02:23:17;5.18;;;1.80;;
45728;SDS011;31439;53.512;10.206;2023-04-03T02:25:51;6.47;;;2.03;;
45728;SDS011;31439;53.512;10.206;2023-04-03T02:28:17;7.43;;;2.13;;
45728;SDS011;31439;53.512;10.206;2023-04-03T02:30:49;6.57;;;2.60;;
45728;SDS011;31439;53.512;10.206;2023-04-03T02:33:16;6.68;;;2.15;;
45728;SDS011;31439;53.512;10.206;2023-04-03T02:35:45;12.55;;;2.38;;
45728;SDS011;31439;53.512;10.206;2023-04-03T02:38:21;4.70;;;1.88;;
45728;SDS011;31439;53.512;10.206;2023-04-03T02:40:50;4.00;;;1.55;;
45728;SDS011;31439;53.512;10.206;2023-04-03T02:43:16;5.38;;;1.70;;
45728;SDS011;31439;53.512;10.206;2023-04-03T02:45:45;3.78;;;1.73;;
45728;SDS011;31439;53.512;10.206;2023-04-03T02:48:10;8.35;;;2.03;;
45728;SDS011;31439;53.512;10.206;2023-04-03T02:50:40;8.45;;;2.13;;
45728;SDS011;31439;53.512;10.206;2023-04-03T02:53:06;7.25;;;1.90;;
45728;SDS011;31439;53.512;10.206;2023-04-03T02:55:33;8.13;;;2.08;;
45728;SDS011;31439;53.512;10.206;2023-04-03T02:58:01;5.68;;;1.85;;
45728;SDS011;31439;53.512;10.206;2023-04-03T03:00:38;6.20;;;1.75;;
45728;SDS011;31439;53.512;10.206;2023-04-03T03:03:11;6.20;;;2.00;;
45728;SDS011;31439;53.512;10.206;2023-04-03T03:05:48;6.35;;;2.05;;
45728;SDS011;31439;53.512;10.206;2023-04-03T03:08:15;8.13;;;2.10;;
45728;SDS011;31439;53.512;10.206;2023-04-03T03:10:45;6.53;;;2.08;;
45728;SDS011;31439;53.512;10.206;2023-04-03T03:13:17;5.63;;;1.90;;
45728;SDS011;31439;53.512;10.206;2023-04-03T03:15:44;6.97;;;2.30;;
45728;SDS011;31439;53.512;10.206;2023-04-03T03:18:18;7.75;;;2.17;;
45728;SDS011;31439;53.512;10.206;2023-04-03T03:20:51;4.70;;;1.95;;
45728;SDS011;31439;53.512;10.206;2023-04-03T03:23:29;5.63;;;2.25;;
45728;SDS011;31439;53.512;10.206;2023-04-03T03:26:14;5.20;;;2.13;;
45728;SDS011;31439;53.512;10.206;2023-04-03T03:28:49;7.93;;;2.83;;
45728;SDS011;31439;53.512;10.206;2023-04-03T03:31:25;6.00;;;2.03;;
45728;SDS011;31439;53.512;10.206;2023-04-03T03:34:14;7.00;;;2.10;;
45728;SDS011;31439;53.512;10.206;2023-04-03T03:36:43;8.88;;;2.30;;
45728;SDS011;31439;53.512;10.206;2023-04-03T03:39:24;7.32;;;2.15;;
45728;SDS011;31439;53.512;10.206;2023-04-03T03:41:58;5.63;;;1.70;;
45728;SDS011;31439;53.512;10.206;2023-04-03T03:44:31;5.10;;;2.22;;
45728;SDS011;31439;53.512;10.206;2023-04-03T03:49:28;10.70;;;2.88;;
45728;SDS011;31439;53.512;10.206;2023-04-03T03:51:54;7.03;;;2.80;;
45728;SDS011;31439;53.512;10.206;2023-04-03T03:54:20;7.68;;;2.30;;
45728;SDS011;31439;53.512;10.206;2023-04-03T03:56:46;5.90;;;1.85;;
45728;SDS011;31439;53.512;10.206;2023-04-03T03:59:12;6.30;;;2.28;;
45728;SDS011;31439;53.512;10.206;2023-04-03T04:01:38;5.30;;;2.28;;
45728;SDS011;31439;53.512;10.206;2023-04-03T04:04:04;7.50;;;2.45;;
45728;SDS011;31439;53.512;10.206;2023-04-03T04:06:30;5.75;;;1.98;;
45728;SDS011;31439;53.512;10.206;2023-04-03T04:08:56;9.07;;;2.03;;
45728;SDS011;31439;53.512;10.206;2023-04-03T04:11:22;8.55;;;3.72;;
45728;SDS011;31439;53.512;10.206;2023-04-03T04:13:48;7.78;;;3.67;;
45728;SDS011;31439;53.512;10.206;2023-04-03T04:16:14;8.02;;;2.20;;
45728;SDS011;31439;53.512;10.206;2023-04-03T04:18:40;6.00;;;2.40;;
45728;SDS011;31439;53.512;10.206;2023-04-03T04:21:06;6.70;;;2.30;;
45728;SDS011;31439;53.512;10.206;2023-04-03T04:23:32;6.88;;;2.30;;
45728;SDS011;31439;53.512;10.206;2023-04-03T04:25:58;5.72;;;2.55;;
45728;SDS011;31439;53.512;10.206;2023-04-03T04:28:24;10.77;;;2.53;;
45728;SDS011;31439;53.512;10.206;2023-04-03T04:30:50;8.65;;;2.63;;
45728;SDS011;31439;53.512;10.206;2023-04-03T04:33:16;8.23;;;2.40;;
45728;SDS011;31439;53.512;10.206;2023-04-03T04:35:42;11.40;;;2.65;;
45728;SDS011;31439;53.512;10.206;2023-04-03T04:38:08;12.25;;;4.07;;
45728;SDS011;31439;53.512;10.206;2023-04-03T04:40:34;8.98;;;3.58;;
45728;SDS011;31439;53.512;10.206;2023-04-03T04:43:00;12.15;;;4.43;;
45728;SDS011;31439;53.512;10.206;2023-04-03T04:45:26;10.02;;;3.00;;
45728;SDS011;31439;53.512;10.206;2023-04-03T04:47:54;13.23;;;3.47;;
45728;SDS011;31439;53.512;10.206;2023-04-03T04:50:20;9.15;;;3.30;;
45728;SDS011;31439;53.512;10.206;2023-04-03T04:52:47;7.53;;;3.08;;
45728;SDS011;31439;53.512;10.206;2023-04-03T04:55:13;10.43;;;3.33;;
45728;SDS011;31439;53.512;10.206;2023-04-03T04:57:39;7.80;;;3.28;;
45728;SDS011;31439;53.512;10.206;2023-04-03T05:00:05;7.30;;;3.33;;
45728;SDS011;31439;53.512;10.206;2023-04-03T05:02:31;8.27;;;3.17;;
45728;SDS011;31439;53.512;10.206;2023-04-03T05:04:57;9.02;;;3.67;;
45728;SDS011;31439;53.512;10.206;2023-04-03T05:07:23;10.50;;;3.75;;
45728;SDS011;31439;53.512;10.206;2023-04-03T05:09:49;7.50;;;3.47;;
45728;SDS011;31439;53.512;10.206;2023-04-03T05:12:17;12.07;;;3.70;;
45728;SDS011;31439;53.512;10.206;2023-04-03T05:14:46;8.50;;;3.83;;
45728;SDS011;31439;53.512;10.206;2023-04-03T05:17:14;13.00;;;4.03;;
45728;SDS011;31439;53.512;10.206;2023-04-03T05:19:40;10.52;;;3.97;;
45728;SDS011;31439;53.512;10.206;2023-04-03T05:22:06;11.63;;;4.00;;
45728;SDS011;31439;53.512;10.206;2023-04-03T05:24:32;9.18;;;4.13;;
45728;SDS011;31439;53.512;10.206;2023-04-03T05:27:00;8.88;;;3.92;;
45728;SDS011;31439;53.512;10.206;2023-04-03T05:29:26;11.25;;;3.70;;
45728;SDS011;31439;53.512;10.206;2023-04-03T05:31:52;8.00;;;4.03;;
45728;SDS011;31439;53.512;10.206;2023-04-03T05:34:20;8.70;;;3.92;;
45728;SDS011;31439;53.512;10.206;2023-04-03T05:36:46;14.80;;;4.65;;
45728;SDS011;31439;53.512;10.206;2023-04-03T05:39:12;10.27;;;4.43;;
45728;SDS011;31439;53.512;10.206;2023-04-03T05:41:38;7.85;;;4.20;;
45728;SDS011;31439;53.512;10.206;2023-04-03T05:44:04;10.38;;;4.35;;
45728;SDS011;31439;53.512;10.206;2023-04-03T05:46:32;12.48;;;4.43;;
45728;SDS011;31439;53.512;10.206;2023-04-03T05:49:00;9.65;;;4.35;;
45728;SDS011;31439;53.512;10.206;2023-04-03T05:51:28;11.57;;;5.20;;
45728;SDS011;31439;53.512;10.206;2023-04-03T05:54:09;14.10;;;5.35;;
45728;SDS011;31439;53.512;10.206;2023-04-03T05:56:41;10.18;;;4.95;;
45728;SDS011;31439;53.512;10.206;2023-04-03T05:59:07;11.68;;;5.72;;
45728;SDS011;31439;53.512;10.206;2023-04-03T06:01:33;11.05;;;5.60;;
45728;SDS011;31439;53.512;10.206;2023-04-03T06:04:02;8.80;;;4.03;;
45728;SDS011;31439;53.512;10.206;2023-04-03T06:09:17;10.95;;;4.25;;
45728;SDS011;31439;53.512;10.206;2023-04-03T06:11:44;13.40;;;4.45;;
45728;SDS011;31439;53.512;10.206;2023-04-03T06:14:11;9.95;;;4.28;;
45728;SDS011;31439;53.512;10.206;2023-04-03T06:16:40;12.45;;;4.28;;
45728;SDS011;31439;53.512;10.206;2023-04-03T06:19:09;14.07;;;4.20;;
45728;SDS011;31439;53.512;10.206;2023-04-03T06:21:36;10.40;;;3.92;;
45728;SDS011;31439;53.512;10.206;2023-04-03T06:24:02;9.88;;;5.05;;
45728;SDS011;31439;53.512;10.206;2023-04-03T06:26:29;13.95;;;5.10;;
45728;SDS011;31439;53.512;10.206;2023-04-03T06:28:55;10.13;;;4.63;;
45728;SDS011;31439;53.512;10.206;2023-04-03T06:31:24;9.68;;;4.40;;
45728;SDS011;31439;53.512;10.206;2023-04-03T06:33:50;13.15;;;3.78;;
45728;SDS011;31439;53.512;10.206;2023-04-03T06:36:17;6.75;;;3.00;;
45728;SDS011;31439;53.512;10.206;2023-04-03T06:38:48;7.05;;;3.45;;
45728;SDS011;31439;53.512;10.206;2023-04-03T06:41:14;10.02;;;4.28;;
45728;SDS011;31439;53.512;10.206;2023-04-03T06:43:46;11.95;;;4.53;;
45728;SDS011;31439;53.512;10.206;2023-04-03T06:46:14;10.90;;;3.90;;
45728;SDS011;31439;53.512;10.206;2023-04-03T06:48:41;8.18;;;3.03;;
45728;SDS011;31439;53.512;10.206;2023-04-03T06:51:11;9.38;;;3.58;;
45728;SDS011;31439;53.512;10.206;2023-04-03T06:53:46;7.70;;;3.03;;
45728;SDS011;31439;53.512;10.206;2023-04-03T06:56:13;4.97;;;2.38;;
45728;SDS011;31439;53.512;10.206;2023-04-03T06:58:40;6.03;;;2.35;;
45728;SDS011;31439;53.512;10.206;2023-04-03T07:01:09;6.82;;;2.72;;
45728;SDS011;31439;53.512;10.206;2023-04-03T07:03:41;9.48;;;2.22;;
45728;SDS011;31439;53.512;10.206;2023-04-03T07:06:09;8.73;;;2.30;;
45728;SDS011;31439;53.512;10.206;2023-04-03T07:08:37;3.67;;;2.00;;
45728;SDS011;31439;53.512;10.206;2023-04-03T07:11:04;4.53;;;1.83;;
45728;SDS011;31439;53.512;10.206;2023-04-03T07:13:41;5.70;;;2.30;;
45728;SDS011;31439;53.512;10.206;2023-04-03T07:16:09;7.47;;;1.95;;
45728;SDS011;31439;53.512;10.206;2023-04-03T07:18:38;5.53;;;2.00;;
45728;SDS011;31439;53.512;10.206;2023-04-03T07:21:05;6.13;;;2.05;;
45728;SDS011;31439;53.512;10.206;2023-04-03T07:23:33;10.98;;;2.88;;
45728;SDS011;31439;53.512;10.206;2023-04-03T07:26:08;6.10;;;1.65;;
45728;SDS011;31439;53.512;10.206;2023-04-03T07:28:34;4.40;;;1.45;;
45728;SDS011;31439;53.512;10.206;2023-04-03T07:31:04;7.57;;;1.75;;
45728;SDS011;31439;53.512;10.206;2023-04-03T07:33:33;5.03;;;1.60;;
45728;SDS011;31439;53.512;10.206;2023-04-03T07:36:03;4.72;;;1.65;;
45728;SDS011;31439;53.512;10.206;2023-04-03T07:38:31;6.10;;;1.38;;
45728;SDS011;31439;53.512;10.206;2023-04-03T07:41:00;6.00;;;1.80;;
45728;SDS011;31439;53.512;10.206;2023-04-03T07:43:32;5.45;;;2.03;;
45728;SDS011;31439;53.512;10.206;2023-04-03T07:46:08;6.10;;;1.88;;
45728;SDS011;31439;53.512;10.206;2023-04-03T07:48:37;5.13;;;2.10;;
45728;SDS011;31439;53.512;10.206;2023-04-03T07:51:04;5.93;;;2.05;;
45728;SDS011;31439;53.512;10.206;2023-04-03T07:53:30;6.90;;;2.13;;
45728;SDS011;31439;53.512;10.206;2023-04-03T07:55:57;3.38;;;1.50;;
45728;SDS011;31439;53.512;10.206;2023-04-03T07:58:30;6.07;;;1.73;;
45728;SDS011;31439;53.512;10.206;2023-04-03T08:00:59;4.20;;;1.50;;
45728;SDS011;31439;53.512;10.206;2023-04-03T08:03:25;3.45;;;1.48;;
45728;SDS011;31439;53.512;10.206;2023-04-03T08:05:51;4.53;;;1.70;;
45728;SDS011;31439;53.512;10.206;2023-04-03T08:08:19;7.10;;;1.42;;
45728;SDS011;31439;53.512;10.206;2023-04-03T08:10:50;3.78;;;1.40;;
45728;SDS011;31439;53.512;10.206;2023-04-03T08:13:20;3.95;;;1.35;;
45728;SDS011;31439;53.512;10.206;2023-04-03T08:15:46;3.40;;;1.00;;
45728;SDS011;31439;53.512;10.206;2023-04-03T08:18:19;7.15;;;1.42;;
45728;SDS011;31439;53.512;10.206;2023-04-03T08:20:52;4.70;;;1.35;;
45728;SDS011;31439;53.512;10.206;2023-04-03T08:23:18;3.47;;;1.10;;
45728;SDS011;31439;53.512;10.206;2023-04-03T08:25:44;4.82;;;1.70;;
45728;SDS011;31439;53.512;10.206;2023-04-03T08:28:13;5.22;;;1.70;;
45728;SDS011;31439;53.512;10.206;2023-04-03T08:30:40;2.47;;;1.10;;
45728;SDS011;31439;53.512;10.206;2023-04-03T08:33:07;3.95;;;1.70;;
45728;SDS011;31439;53.512;10.206;2023-04-03T08:35:37;4.05;;;1.20;;
45728;SDS011;31439;53.512;10.206;2023-04-03T08:38:04;3.65;;;1.35;;
45728;SDS011;31439;53.512;10.206;2023-04-03T08:40:32;3.67;;;1.10;;
45728;SDS011;31439;53.512;10.206;2023-04-03T08:46:02;1.92;;;0.93;;
45728;SDS011;31439;53.512;10.206;2023-04-03T08:51:24;3.17;;;1.23;;
45728;SDS011;31439;53.512;10.206;2023-04-03T08:53:59;4.70;;;1.33;;
45728;SDS011;31439;53.512;10.206;2023-04-03T08:56:30;6.43;;;1.85;;
45728;SDS011;31439;53.512;10.206;2023-04-03T08:58:59;3.83;;;1.27;;
45728;SDS011;31439;53.512;10.206;2023-04-03T09:01:34;3.03;;;1.02;;
45728;SDS011;31439;53.512;10.206;2023-04-03T09:04:03;2.63;;;1.02;;
45728;SDS011;31439;53.512;10.206;2023-04-03T09:06:38;7.05;;;1.30;;
45728;SDS011;31439;53.512;10.206;2023-04-03T09:11:55;3.40;;;1.10;;
45728;SDS011;31439;53.512;10.206;2023-04-03T09:15:00;2.90;;;1.00;;
45728;SDS011;31439;53.512;10.206;2023-04-03T09:20:39;2.75;;;1.10;;
45728;SDS011;31439;53.512;10.206;2023-04-03T09:23:15;3.90;;;1.45;;
45728;SDS011;31439;53.512;10.206;2023-04-03T09:26:13;3.25;;;0.90;;
45728;SDS011;31439;53.512;10.206;2023-04-03T09:28:42;2.03;;;1.10;;
45728;SDS011;31439;53.512;10.206;2023-04-03T09:31:22;3.20;;;1.20;;
45728;SDS011;31439;53.512;10.206;2023-04-03T09:37:38;5.35;;;1.00;;
45728;SDS011;31439;53.512;10.206;2023-04-03T09:40:37;2.80;;;1.00;;
45728;SDS011;31439;53.512;10.206;2023-04-03T09:45:55;2.30;;;1.20;;
45728;SDS011;31439;53.512;10.206;2023-04-03T09:48:43;3.85;;;1.10;;
45728;SDS011;31439;53.512;10.206;2023-04-03T09:51:16;3.67;;;1.10;;
45728;SDS011;31439;53.512;10.206;2023-04-03T09:53:42;2.58;;;0.93;;
45728;SDS011;31439;53.512;10.206;2023-04-03T09:58:40;5.45;;;1.20;;
45728;SDS011;31439;53.512;10.206;2023-04-03T10:04:05;3.88;;;1.42;;
45728;SDS011;31439;53.512;10.206;2023-04-03T10:12:06;3.45;;;1.23;;
45728;SDS011;31439;53.512;10.206;2023-04-03T10:14:39;3.47;;;1.20;;
45728;SDS011;31439;53.512;10.206;2023-04-03T10:17:28;2.80;;;1.02;;
45728;SDS011;31439;53.512;10.206;2023-04-03T10:23:17;1.83;;;1.00;;
45728;SDS011;31439;53.512;10.206;2023-04-03T10:31:10;2.85;;;1.20;;
45728;SDS011;31439;53.512;10.206;2023-04-03T10:33:45;4.20;;;1.30;;
45728;SDS011;31439;53.512;10.206;2023-04-03T10:36:22;4.75;;;1.60;;
45728;SDS011;31439;53.512;10.206;2023-04-03T10:42:03;5.32;;;1.02;;
45728;SDS011;31439;53.512;10.206;2023-04-03T10:53:14;5.32;;;1.40;;
45728;SDS011;31439;53.512;10.206;2023-04-03T10:58:33;5.30;;;1.20;;
45728;SDS011;31439;53.512;10.206;2023-04-03T11:01:02;4.80;;;0.82;;
45728;SDS011;31439;53.512;10.206;2023-04-03T11:03:38;5.40;;;1.42;;
45728;SDS011;31439;53.512;10.206;2023-04-03T11:06:09;2.33;;;1.20;;
45728;SDS011;31439;53.512;10.206;2023-04-03T11:11:09;4.30;;;1.40;;
45728;SDS011;31439;53.512;10.206;2023-04-03T11:13:41;4.88;;;1.23;;
45728;SDS011;31439;53.512;10.206;2023-04-03T11:16:19;3.55;;;1.20;;
45728;SDS011;31439;53.512;10.206;2023-04-03T11:18:52;3.60;;;1.17;;
45728;SDS011;31439;53.512;10.206;2023-04-03T11:21:40;5.05;;;0.93;;
45728;SDS011;31439;53.512;10.206;2023-04-03T11:24:22;2.45;;;1.08;;
45728;SDS011;31439;53.512;10.206;2023-04-03T11:26:51;4.95;;;1.35;;
45728;SDS011;31439;53.512;10.206;2023-04-03T11:29:31;4.28;;;1.00;;
45728;SDS011;31439;53.512;10.206;2023-04-03T11:34:34;3.42;;;1.50;;
45728;SDS011;31439;53.512;10.206;2023-04-03T11:37:10;7.90;;;1.17;;
45728;SDS011;31439;53.512;10.206;2023-04-03T11:39:57;3.45;;;1.48;;
45728;SDS011;31439;53.512;10.206;2023-04-03T11:47:44;2.55;;;0.90;;
45728;SDS011;31439;53.512;10.206;2023-04-03T11:50:32;3.42;;;1.20;;
45728;SDS011;31439;53.512;10.206;2023-04-03T12:13:36;5.22;;;1.27;;
45728;SDS011;31439;53.512;10.206;2023-04-03T12:16:03;2.55;;;1.10;;
45728;SDS011;31439;53.512;10.206;2023-04-03T12:18:41;4.53;;;1.30;;
45728;SDS011;31439;53.512;10.206;2023-04-03T12:26:36;3.60;;;1.40;;
45728;SDS011;31439;53.512;10.206;2023-04-03T12:29:51;4.72;;;1.20;;
45728;SDS011;31439;53.512;10.206;2023-04-03T12:39:54;5.25;;;1.63;;
45728;SDS011;31439;53.512;10.206;2023-04-03T12:47:44;2.83;;;1.17;;
45728;SDS011;31439;53.512;10.206;2023-04-03T12:50:16;3.03;;;1.05;;
45728;SDS011;31439;53.512;10.206;2023-04-03T12:56:18;3.50;;;1.13;;
45728;SDS011;31439;53.512;10.206;2023-04-03T12:58:52;5.55;;;1.35;;
45728;SDS011;31439;53.512;10.206;2023-04-03T13:01:23;4.05;;;1.13;;
45728;SDS011;31439;53.512;10.206;2023-04-03T13:03:54;2.53;;;1.20;;
45728;SDS011;31439;53.512;10.206;2023-04-03T13:06:26;3.78;;;1.38;;
45728;SDS011;31439;53.512;10.206;2023-04-03T13:08:59;6.80;;;1.30;;
45728;SDS011;31439;53.512;10.206;2023-04-03T13:11:34;4.40;;;1.27;;
45728;SDS011;31439;53.512;10.206;2023-04-03T13:14:04;4.38;;;1.33;;
45728;SDS011;31439;53.512;10.206;2023-04-03T13:16:39;4.47;;;1.70;;
45728;SDS011;31439;53.512;10.206;2023-04-03T13:19:16;2.67;;;1.10;;
45728;SDS011;31439;53.512;10.206;2023-04-03T13:21:42;3.08;;;0.90;;
45728;SDS011;31439;53.512;10.206;2023-04-03T13:24:09;5.63;;;1.05;;
45728;SDS011;31439;53.512;10.206;2023-04-03T13:26:37;6.00;;;1.45;;
45728;SDS011;31439;53.512;10.206;2023-04-03T13:29:06;6.20;;;1.20;;
45728;SDS011;31439;53.512;10.206;2023-04-03T13:31:46;1.10;;;0.80;;
45728;SDS011;31439;53.512;10.206;2023-04-03T13:34:13;2.35;;;1.13;;
45728;SDS011;31439;53.512;10.206;2023-04-03T13:41:40;3.22;;;1.15;;
45728;SDS011;31439;53.512;10.206;2023-04-03T13:44:30;5.57;;;1.25;;
45728;SDS011;31439;53.512;10.206;2023-04-03T13:50:00;6.75;;;1.60;;
45728;SDS011;31439;53.512;10.206;2023-04-03T13:52:43;2.70;;;1.20;;
45728;SDS011;31439;53.512;10.206;2023-04-03T13:55:24;3.05;;;1.02;;
45728;SDS011;31439;53.512;10.206;2023-04-03T13:57:57;2.13;;;1.00;;
45728;SDS011;31439;53.512;10.206;2023-04-03T14:00:39;2.70;;;0.90;;
45728;SDS011;31439;53.512;10.206;2023-04-03T14:03:12;2.53;;;1.00;;
45728;SDS011;31439;53.512;10.206;2023-04-03T14:05:39;2.47;;;0.95;;
45728;SDS011;31439;53.512;10.206;2023-04-03T14:08:05;2.00;;;0.80;;
45728;SDS011;31439;53.512;10.206;2023-04-03T14:10:32;7.45;;;1.67;;
45728;SDS011;31439;53.512;10.206;2023-04-03T14:13:01;6.03;;;1.50;;
45728;SDS011;31439;53.512;10.206;2023-04-03T14:15:29;2.85;;;0.95;;
45728;SDS011;31439;53.512;10.206;2023-04-03T14:17:56;2.03;;;1.00;;
45728;SDS011;31439;53.512;10.206;2023-04-03T14:20:24;2.33;;;0.90;;
45728;SDS011;31439;53.512;10.206;2023-04-03T14:22:51;3.08;;;1.00;;
45728;SDS011;31439;53.512;10.206;2023-04-03T14:25:20;3.05;;;1.10;;
45728;SDS011;31439;53.512;10.206;2023-04-03T14:27:48;3.13;;;1.00;;
45728;SDS011;31439;53.512;10.206;2023-04-03T14:30:20;1.80;;;1.20;;
45728;SDS011;31439;53.512;10.206;2023-04-03T14:32:53;3.22;;;1.08;;
45728;SDS011;31439;53.512;10.206;2023-04-03T14:35:21;3.33;;;1.50;;
45728;SDS011;31439;53.512;10.206;2023-04-03T14:37:47;3.15;;;1.48;;
45728;SDS011;31439;53.512;10.206;2023-04-03T14:40:19;2.92;;;1.13;;
45728;SDS011;31439;53.512;10.206;2023-04-03T14:42:47;3.40;;;1.30;;
45728;SDS011;31439;53.512;10.206;2023-04-03T14:45:14;3.80;;;1.10;;
45728;SDS011;31439;53.512;10.206;2023-04-03T14:47:44;2.38;;;1.10;;
45728;SDS011;31439;53.512;10.206;2023-04-03T14:50:17;2.83;;;1.05;;
45728;SDS011;31439;53.512;10.206;2023-04-03T14:52:46;3.30;;;1.15;;
45728;SDS011;31439;53.512;10.206;2023-04-03T14:55:14;3.45;;;1.17;;
45728;SDS011;31439;53.512;10.206;2023-04-03T14:57:41;3.03;;;1.02;;
45728;SDS011;31439;53.512;10.206;2023-04-03T15:00:07;4.85;;;1.40;;
45728;SDS011;31439;53.512;10.206;2023-04-03T15:02:39;4.20;;;1.33;;
45728;SDS011;31439;53.512;10.206;2023-04-03T15:05:06;2.35;;;1.08;;
45728;SDS011;31439;53.512;10.206;2023-04-03T15:07:53;4.38;;;1.00;;
45728;SDS011;31439;53.512;10.206;2023-04-03T15:10:22;2.45;;;1.17;;
45728;SDS011;31439;53.512;10.206;2023-04-03T15:12:50;3.65;;;1.50;;
45728;SDS011;31439;53.512;10.206;2023-04-03T15:15:20;3.58;;;1.58;;
45728;SDS011;31439;53.512;10.206;2023-04-03T15:17:47;4.28;;;1.20;;
45728;SDS011;31439;53.512;10.206;2023-04-03T15:20:19;3.75;;;1.60;;
45728;SDS011;31439;53.512;10.206;2023-04-03T15:23:04;4.55;;;1.80;;
45728;SDS011;31439;53.512;10.206;2023-04-03T15:25:31;3.03;;;1.70;;
45728;SDS011;31439;53.512;10.206;2023-04-03T15:27:57;3.63;;;1.20;;
45728;SDS011;31439;53.512;10.206;2023-04-03T15:30:24;3.58;;;0.88;;
45728;SDS011;31439;53.512;10.206;2023-04-03T15:32:56;3.47;;;1.05;;
45728;SDS011;31439;53.512;10.206;2023-04-03T15:35:21;2.38;;;1.00;;
45728;SDS011;31439;53.512;10.206;2023-04-03T15:37:47;2.75;;;1.10;;
45728;SDS011;31439;53.512;10.206;2023-04-03T15:40:13;2.90;;;1.20;;
45728;SDS011;31439;53.512;10.206;2023-04-03T15:42:42;3.53;;;1.23;;
45728;SDS011;31439;53.512;10.206;2023-04-03T15:45:19;1.83;;;1.10;;
45728;SDS011;31439;53.512;10.206;2023-04-03T15:47:54;3.90;;;1.10;;
45728;SDS011;31439;53.512;10.206;2023-04-03T15:50:21;5.32;;;1.27;;
45728;SDS011;31439;53.512;10.206;2023-04-03T15:52:48;5.13;;;1.50;;
45728;SDS011;31439;53.512;10.206;2023-04-03T15:55:29;4.45;;;1.40;;
45728;SDS011;31439;53.512;10.206;2023-04-03T15:57:56;5.15;;;1.30;;
45728;SDS011;31439;53.512;10.206;2023-04-03T16:00:25;4.95;;;1.27;;
45728;SDS011;31439;53.512;10.206;2023-04-03T16:03:10;2.15;;;1.27;;
45728;SDS011;31439;53.512;10.206;2023-04-03T16:05:37;4.50;;;1.30;;
45728;SDS011;31439;53.512;10.206;2023-04-03T16:08:04;5.07;;;2.35;;
45728;SDS011;31439;53.512;10.206;2023-04-03T16:10:37;3.88;;;1.52;;
45728;SDS011;31439;53.512;10.206;2023-04-03T16:13:09;2.25;;;1.35;;
45728;SDS011;31439;53.512;10.206;2023-04-03T16:19:56;3.50;;;1.60;;
45728;SDS011;31439;53.512;10.206;2023-04-03T16:26:42;4.45;;;1.20;;
45728;SDS011;31439;53.512;10.206;2023-04-03T16:29:07;5.75;;;1.65;;
45728;SDS011;31439;53.512;10.206;2023-04-03T16:31:33;3.88;;;1.30;;
45728;SDS011;31439;53.512;10.206;2023-04-03T16:33:59;4.15;;;1.55;;
45728;SDS011;31439;53.512;10.206;2023-04-03T16:36:25;5.55;;;2.10;;
45728;SDS011;31439;53.512;10.206;2023-04-03T16:38:51;4.13;;;1.90;;
45728;SDS011;31439;53.512;10.206;2023-04-03T16:41:16;3.30;;;1.45;;
45728;SDS011;31439;53.512;10.206;2023-04-03T16:43:42;4.22;;;1.30;;
45728;SDS011;31439;53.512;10.206;2023-04-03T16:46:08;6.00;;;1.38;;
45728;SDS011;31439;53.512;10.206;2023-04-03T16:48:34;3.70;;;1.23;;
45728;SDS011;31439;53.512;10.206;2023-04-03T16:51:00;4.53;;;1.30;;
45728;SDS011;31439;53.512;10.206;2023-04-03T16:53:26;4.20;;;1.50;;
45728;SDS011;31439;53.512;10.206;2023-04-03T16:55:56;3.10;;;1.30;;
45728;SDS011;31439;53.512;10.206;2023-04-03T16:58:23;4.00;;;1.50;;
45728;SDS011;31439;53.512;10.206;2023-04-03T17:00:52;3.92;;;1.40;;
45728;SDS011;31439;53.512;10.206;2023-04-03T17:03:21;3.78;;;1.50;;
45728;SDS011;31439;53.512;10.206;2023-04-03T17:05:50;3.28;;;1.50;;
45728;SDS011;31439;53.512;10.206;2023-04-03T17:08:16;6.25;;;1.52;;
45728;SDS011;31439;53.512;10.206;2023-04-03T17:10:43;4.97;;;1.40;;